Latest Coastal Weather Observations for Cape Bruny AWS

IDT60701

Issued at 6:05 am EDT Saturday 25 October 2014 (issued every 10 minutes, with the page automatically refreshed every 10 minutes)

About coastal observations | Map of coastal stations | Coastal observations for TAS | Marine services | Other Formats
Station Details ID: 094198 Name: CAPE BRUNY (CAPE BRUNY) Lat: -43.49 Lon: 147.14 Height: 59.7 m
Data from the previous 72 hours. | See also: Recent months at Cape Bruny AWS
Date/Time
EDT
Temp

°C
Wind Pressure Rain
since 9am
mm
Weather Cloud Vis
km
Sea
Height
m
Swell
Dir
 
Speed
knots
Gust
knots
hPa Trend Height
m
Period
s
Dir
25/06:00am 12.0 WSW 20 25 1012.2 - 1.4 - - - - - - -
25/05:30am 11.7 WSW 20 25 1011.6 - 1.4 - - - - - - -
25/05:00am 11.9 WSW 20 26 1011.7 - 1.4 - - - - - - -
25/04:30am 12.3 WSW 21 28 1011.1 - 1.4 - - - - - - -
25/04:00am 12.7 WSW 21 26 1010.6 - 1.4 - - - - - - -
25/03:30am 12.7 WSW 19 25 1010.1 - 1.4 - - - - - - -
25/03:00am 12.7 WSW 14 20 1009.9 - 1.4 - - - - - - -
25/02:30am 12.8 WSW 19 25 1009.8 - 1.4 - - - - - - -
25/02:00am 13.0 WSW 19 27 1009.4 - 1.4 - - - - - - -
25/01:50am 13.1 WSW 15 25 1009.2 - 1.4 - - - - - - -
25/01:30am 13.1 WSW 15 22 1009.2 - 1.4 - - - - - - -
25/01:00am 12.9 SW 11 15 1009.1 - 1.4 - - - - - - -
25/12:30am 13.0 SW 9 13 1009.5 - 1.4 - - - - - - -
25/12:00am 13.4 WSW 14 18 1009.1 - 1.4 Rain - - - - - -
 
Date/Time
EDT
Temp

°C
Wind Pressure Rain
since 9am
mm
Weather Cloud Vis
km
Sea
Height
m
Swell
Dir
 
Speed
knots
Gust
knots
hPa Trend Height
m
Period
s
Dir
24/11:30pm 13.3 SW 14 19 1009.1 - 1.2 - - - - - - -
24/11:00pm 13.4 WSW 8 14 1009.1 - 1.2 - - - - - - -
24/10:30pm 13.8 ESE 3 5 1008.9 - 1.2 - - - - - - -
24/10:00pm 14.0 CALM 0 0 1008.2 - 1.2 - - - - - - -
24/09:30pm 15.0 W 6 8 1008.7 - 0.8 - - - - - - -
24/09:00pm 15.7 N 11 15 1008.4 - 0.0 - - - - - - -
24/08:30pm 15.4 N 10 14 1007.9 - 0.0 - - - - - - -
24/08:00pm 15.9 N 11 16 1007.5 - 0.0 - - - - - - -
24/07:30pm 16.2 NNE 11 16 1006.4 - 0.0 - - - - - - -
24/07:00pm 16.3 NNE 10 13 1006.8 - 0.0 - - - - - - -
24/06:30pm 16.3 NE 13 19 1006.9 - 0.0 - - - - - - -
24/06:00pm 16.6 NE 10 15 1008.2 - 0.0 - - - - - - -
24/05:30pm 16.6 ENE 12 17 1008.5 - 0.0 - - - - - - -
24/05:00pm 17.2 NE 16 22 1008.5 - 0.0 - - - - - - -
24/04:30pm 17.0 NE 16 23 1008.8 - 0.0 - - - - - - -
24/04:00pm 17.0 NE 16 23 1009.3 - 0.0 - - - - - - -
24/03:30pm 17.2 ENE 15 20 1009.7 - 0.0 - - - - - - -
24/03:00pm 17.6 NE 15 22 1010.5 - 0.0 - - - - - - -
24/02:30pm 18.2 NNE 16 22 1011.0 - 0.0 - - - - - - -
24/02:19pm 18.1 NNE 15 25 1011.1 - 0.0 - - - - - - -
24/02:00pm 19.2 NNE 15 23 1011.6 - 0.0 - - - - - - -
24/01:45pm 18.5 NE 16 28 1011.8 - 0.0 - - - - - - -
24/01:30pm 18.8 NE 15 21 1012.2 - 0.0 - - - - - - -
24/01:00pm 17.9 NNE 18 26 1013.0 - 0.0 - - - - - - -
24/12:47pm 17.7 NNE 16 27 1013.2 - 0.0 - - - - - - -
24/12:30pm 18.0 NE 18 26 1013.4 - 0.0 - - - - - - -
24/12:00pm 16.7 NNE 17 28 1014.3 - 0.0 - - - - - - -
24/11:41am 16.3 NNE 15 25 1014.6 - 0.0 - - - - - - -
24/11:30am 15.6 NE 15 24 1014.8 - 0.0 - - - - - - -
24/11:00am 15.3 NNE 18 26 1015.3 - 0.0 - - - - - - -
24/10:30am 15.2 NNE 17 28 1016.0 - 0.0 - - - - - - -
24/10:00am 13.6 NNE 17 28 1016.4 - 0.0 - - - - - - -
24/09:30am 13.3 NNE 17 27 1016.8 - 0.0 - - - - - - -
24/09:00am 11.9 NNE 17 27 1017.0 - 0.0 - - - - - - -
24/08:40am 12.1 NNE 16 26 1017.4 - 0.0 - - - - - - -
24/08:30am 11.8 NNE 15 23 1017.6 - 0.0 - - - - - - -
24/08:00am 11.9 NNE 13 22 1018.2 - 0.0 - - - - - - -
24/07:30am 10.8 NNE 15 25 1018.4 - 0.0 - - - - - - -
24/07:29am 10.8 NNE 15 25 1018.4 - 0.0 - - - - - - -
24/07:00am 10.1 NNE 10 16 1018.6 - 0.0 - - - - - - -
24/06:30am 9.3 NE 14 19 1018.9 - 0.0 - - - - - - -
24/06:00am 8.6 NE 10 16 1019.6 - 0.0 - - - - - - -
24/05:30am 8.8 NNE 10 17 1019.7 - 0.0 - - - - - - -
24/05:00am 9.0 NNE 13 19 1020.1 - 0.0 - - - - - - -
24/04:30am 8.9 NNE 12 16 1020.3 - 0.0 - - - - - - -
24/04:00am 8.8 NNE 12 17 1020.6 - 0.0 - - - - - - -
24/03:30am 8.9 NE 13 20 1021.2 - 0.0 - - - - - - -
24/03:00am 9.1 NNE 12 20 1021.8 - 0.0 - - - - - - -
24/02:30am 8.9 NE 13 20 1021.8 - 0.0 - - - - - - -
24/02:00am 9.0 NNE 13 19 1022.3 - 0.0 - - - - - - -
24/01:30am 9.2 NNE 14 22 1022.5 - 0.0 - - - - - - -
24/01:00am 9.3 NNE 13 21 1022.8 - 0.0 - - - - - - -
24/12:30am 9.4 NNE 11 18 1023.2 - 0.0 - - - - - - -
24/12:00am 9.6 NE 13 21 1023.6 - 0.0 - - - - - - -
 
Date/Time
EDT
Temp

°C
Wind Pressure Rain
since 9am
mm
Weather Cloud Vis
km
Sea
Height
m
Swell
Dir
 
Speed
knots
Gust
knots
hPa Trend Height
m
Period
s
Dir
23/11:30pm 9.5 NE 11 17 1023.8 - 0.0 - - - - - - -
23/11:00pm 9.7 NNE 11 16 1024.0 - 0.0 - - - - - - -
23/10:30pm 9.6 NE 11 17 1023.9 - 0.0 - - - - - - -
23/10:00pm 9.4 NNE 9 14 1024.2 - 0.0 - - - - - - -
23/09:30pm 9.6 NE 11 17 1024.2 - 0.0 - - - - - - -
23/09:00pm 9.3 NE 10 15 1024.4 - 0.0 - - - - - - -
23/08:30pm 9.2 NE 8 10 1024.7 - 0.0 - - - - - - -
23/08:00pm 9.4 ENE 9 11 1024.5 - 0.0 - - - - - - -
23/07:30pm 10.1 ENE 11 17 1024.7 - 0.0 - - - - - - -
23/07:00pm 10.9 ENE 14 21 1024.6 - 0.0 - - - - - - -
23/06:30pm 11.6 ENE 13 17 1024.8 - 0.0 - - - - - - -
23/06:00pm 12.2 ENE 13 15 1024.8 - 0.0 - - - - - - -
23/05:30pm 12.2 E 18 23 1024.5 - 0.0 - - - - - - -
23/05:00pm 12.5 ESE 18 21 1024.5 - 0.0 - - - - - - -
23/04:30pm 13.0 E 15 22 1024.4 - 0.0 - - - - - - -
23/04:00pm 13.7 E 12 17 1024.5 - 0.0 - - - - - - -
23/03:30pm 14.0 E 12 17 1024.6 - 0.0 - - - - - - -
23/03:00pm 13.9 E 13 16 1024.7 - 0.0 - - - - - - -
23/02:30pm 13.1 ESE 17 20 1024.9 - 0.0 - - - - - - -
23/02:00pm 13.0 ESE 18 21 1025.1 - 0.0 - - - - - - -
23/01:30pm 13.4 ESE 16 19 1025.4 - 0.0 - - - - - - -
23/01:00pm 13.6 ESE 14 17 1025.5 - 0.0 - - - - - - -
23/12:30pm 13.6 ESE 12 15 1025.7 - 0.0 - - - - - - -
23/12:00pm 13.1 ESE 11 13 1026.1 - 0.0 - - - - - - -
23/11:30am 13.1 ESE 9 11 1026.4 - 0.0 - - - - - - -
23/11:00am 12.5 ESE 9 13 1026.5 - 0.0 - - - - - - -
23/10:30am 12.4 E 9 14 1026.4 - 0.0 - - - - - - -
23/10:00am 11.6 ESE 9 13 1026.3 - 0.0 - - - - - - -
23/09:30am 11.4 SE 6 9 1026.0 - 0.0 - - - - - - -
23/09:00am 11.1 S 6 9 1026.0 - 0.0 - - - - - - -
23/08:30am 10.8 SSE 8 11 1025.9 - 0.0 - - - - - - -
23/08:00am 10.2 S 10 14 1025.6 - 0.0 - - - - - - -
23/07:30am 10.3 S 9 13 1025.1 - 0.0 - - - - - - -
23/07:00am 10.2 SSE 11 14 1024.5 - 0.0 - - - - - - -
23/06:30am 10.1 S 8 13 1024.2 - 0.0 - - - - - - -
23/06:00am 9.8 S 12 17 1023.9 - 0.0 - - - - - - -
23/05:30am 10.0 S 11 19 1023.5 - 0.0 - - - - - - -
23/05:00am 9.9 S 12 20 1023.0 - 0.0 - - - - - - -
23/04:30am 10.4 SW 11 14 1022.5 - 0.0 - - - - - - -
23/04:00am 10.5 S 12 19 1022.4 - 0.0 - - - - - - -
23/03:30am 10.6 SW 10 17 1022.2 - 0.0 - - - - - - -
23/03:00am 10.8 SSW 8 15 1022.3 - 0.0 - - - - - - -
23/02:30am 10.7 SW 14 19 1022.4 - 0.0 - - - - - - -
23/02:00am 10.7 SW 16 21 1022.4 - 0.0 - - - - - - -
23/01:30am 10.5 SW 13 19 1022.5 - 0.0 - - - - - - -
23/01:00am 10.6 S 9 13 1022.3 - 0.0 - - - - - - -
23/12:30am 10.6 SW 12 22 1022.0 - 0.0 - - - - - - -
23/12:00am 10.6 WSW 15 26 1021.6 - 0.0 - - - - - - -
 
Date/Time
EDT
Temp

°C
Wind Pressure Rain
since 9am
mm
Weather Cloud Vis
km
Sea
Height
m
Swell
Dir
 
Speed
knots
Gust
knots
hPa Trend Height
m
Period
s
Dir
22/11:30pm 11.2 SW 17 23 1021.0 - 0.0 - - - - - - -
22/11:00pm 11.8 WSW 17 24 1020.6 - 0.0 - - - - - - -
22/10:30pm 12.6 WSW 13 19 1020.0 - 0.0 - - - - - - -
22/10:00pm 12.6 WSW 17 25 1019.7 - 0.0 - - - - - - -
22/09:30pm 12.6 WSW 17 26 1019.1 - 0.0 - - - - - - -
22/09:00pm 12.4 WSW 24 31 1018.4 - 0.0 - - - - - - -
22/08:30pm 12.8 WSW 20 27 1018.1 - 0.0 - - - - - - -
22/08:00pm 13.3 WSW 25 33 1017.0 - 0.0 - - - - - - -
22/07:30pm 13.8 WSW 24 31 1016.3 - 0.0 - - - - - - -
22/07:10pm 14.1 WSW 22 32 1015.6 - 0.0 - - - - - - -
22/07:00pm 14.4 WSW 22 30 1015.5 - 0.0 - - - - - - -
22/06:30pm 15.2 WSW 19 31 1014.6 - 0.0 - - - - - - -
22/06:00pm 15.5 WSW 17 26 1014.6 - 0.0 - - - - - - -
22/05:52pm 15.0 WSW 16 26 1014.6 - 0.0 - - - - - - -
22/05:30pm 14.2 SW 12 18 1014.9 - 0.0 - - - - - - -
22/05:00pm 14.4 S 6 10 1013.9 - 0.0 - - - - - - -
22/04:30pm 15.1 SSW 6 11 1015.1 - 0.0 - - - - - - -
22/04:00pm 16.0 WSW 13 20 1014.9 - 0.0 - - - - - - -
22/03:30pm 17.1 SW 7 13 1015.2 - 0.0 - - - - - - -
22/03:00pm 17.9 W 6 9 1014.6 - 0.0 - - - - - - -
22/02:30pm 20.3 WSW 5 8 1014.5 - 0.0 - - - - - - -
22/02:00pm 19.8 W 5 6 1014.0 - 0.0 - - - - - - -
22/01:30pm 21.8 WNW 3 7 1014.6 - 0.0 - - - - - - -
22/01:00pm 19.0 E 7 8 1014.5 - 0.0 - - - - - - -
22/12:30pm 19.6 ESE 7 9 1015.3 - 0.0 - - - - - - -
22/12:00pm 18.3 ESE 6 8 1015.7 - 0.0 - - - - - - -
22/11:30am 20.0 NE 8 11 1016.2 - 0.0 - - - - - - -
22/11:00am 18.8 N 11 15 1016.6 - 0.0 - - - - - - -
22/10:30am 17.1 N 13 19 1016.9 - 0.0 - - - - - - -
22/10:00am 16.0 N 11 15 1017.4 - 0.0 - - - - - - -
22/09:30am 14.8 N 13 16 1017.8 - 0.0 - - - - - - -
22/09:00am 12.9 N 12 17 1017.7 - 0.0 - - - - - - -
22/08:30am 13.2 N 11 15 1018.3 - 0.0 - - - - - - -
22/08:00am 12.7 N 13 17 1018.4 - 0.0 - - - - - - -
22/07:30am 11.9 N 11 17 1018.6 - 0.0 - - - - - - -
22/07:00am 11.1 N 12 16 1018.6 - 0.0 - - - - - - -
22/06:30am 10.8 N 13 20 1018.7 - 0.0 - - - - - - -

Other Formats:

Comma delimited format used in spreadsheet applications
http://www.bom.gov.au/fwo/IDT60701/IDT60701.95967.axf

JavaScript Object Notation format (JSON) in row-major order
http://www.bom.gov.au/fwo/IDT60701/IDT60701.95967.json